Time;durP1;ratioP1;P1;durP2;ratioP2;P2;SDS_P1;SDS_P2;PMS_P1;PMS_P2;Temp;Humidity;BMP_temperature;BMP_pressure;BME280_temperature;BME280_humidity;BME280_pressure;Samples;Min_cycle;Max_cycle;Signal;HPM_P1;HPM_P2
2024/02/12 00:00:11;;;;;;;1.57;1.10;;;;;;;6.38;100.00;153000.06;5052308;28;20534;-90
2024/02/12 00:02:39;;;;;;;1.70;1.00;;;;;;;6.37;100.00;152996.22;5046269;28;20533;-89
2024/02/12 00:05:06;;;;;;;1.10;0.63;;;;;;;6.38;100.00;153000.06;5050397;28;20534;-90
2024/02/12 00:07:33;;;;;;;1.20;1.00;;;;;;;6.39;100.00;153001.38;5046209;28;20436;-90
2024/02/12 00:10:05;;;;;;;1.30;0.90;;;;;;;6.40;100.00;153003.97;5033777;28;20964;-89
2024/02/12 00:12:33;;;;;;;2.17;0.97;;;;;;;6.41;100.00;153006.53;5040502;28;20842;-90
2024/02/12 00:15:00;;;;;;;1.10;0.70;;;;;;;6.41;100.00;153007.81;5051179;28;20969;-89
2024/02/12 00:17:28;;;;;;;1.17;0.60;;;;;;;6.40;100.00;153003.97;5049585;28;20475;-90
2024/02/12 00:19:54;;;;;;;1.70;0.90;;;;;;;6.40;100.00;153005.28;5053697;28;20454;-90
2024/02/12 00:22:21;;;;;;;1.50;0.90;;;;;;;6.40;100.00;153003.97;5050194;28;20451;-90
2024/02/12 00:24:47;;;;;;;1.37;0.80;;;;;;;6.39;100.00;153002.66;5050415;28;20736;-90
2024/02/12 00:27:16;;;;;;;1.50;0.67;;;;;;;6.39;100.00;153001.38;5046877;28;20456;-89
2024/02/12 00:29:44;;;;;;;1.27;0.70;;;;;;;6.41;100.00;153006.53;5048387;28;20567;-90
2024/02/12 00:32:12;;;;;;;1.47;1.03;;;;;;;6.41;100.00;153007.81;5049277;28;20463;-90
2024/02/12 00:34:38;;;;;;;1.40;1.00;;;;;;;6.40;100.00;153005.28;5048776;28;20485;-90
2024/02/12 00:37:06;;;;;;;2.03;0.97;;;;;;;6.42;100.00;153009.13;5048532;28;20463;-90
2024/02/12 00:39:32;;;;;;;1.13;0.77;;;;;;;6.40;100.00;153003.97;5048539;28;20454;-90
2024/02/12 00:41:59;;;;;;;1.00;0.67;;;;;;;6.39;100.00;153001.38;5041933;28;21021;-89
2024/02/12 00:44:26;;;;;;;1.20;0.80;;;;;;;6.39;100.00;153002.66;5049743;28;20448;-89
2024/02/12 00:46:54;;;;;;;1.60;1.20;;;;;;;6.40;100.00;153003.97;5046121;28;20940;-90
2024/02/12 00:49:21;;;;;;;1.70;1.00;;;;;;;6.39;100.00;153001.38;5050673;28;20466;-90
2024/02/12 00:51:48;;;;;;;1.97;1.00;;;;;;;6.41;100.00;153007.81;5049184;28;20443;-90
2024/02/12 00:54:15;;;;;;;1.63;0.70;;;;;;;6.41;100.00;153006.53;5047614;28;20508;-90
2024/02/12 00:56:43;;;;;;;1.20;0.80;;;;;;;6.41;100.00;153006.53;5048748;28;20922;-89
2024/02/12 00:59:10;;;;;;;1.00;0.60;;;;;;;6.38;100.00;152998.81;5046990;28;20839;-90
2024/02/12 01:01:37;;;;;;;1.90;0.70;;;;;;;6.38;100.00;152998.81;5048811;28;20522;-90
2024/02/12 01:04:06;;;;;;;1.60;0.97;;;;;;;6.36;100.00;152993.63;5048563;28;20822;-90
2024/02/12 01:06:33;;;;;;;1.37;0.90;;;;;;;6.35;100.00;152991.06;5031695;28;20477;-90
2024/02/12 01:09:00;;;;;;;1.30;0.93;;;;;;;6.36;100.00;152993.63;5048098;28;20752;-90
2024/02/12 01:11:28;;;;;;;1.20;0.80;;;;;;;6.36;100.00;152993.63;5049726;28;20477;-90
2024/02/12 01:13:55;;;;;;;1.77;0.70;;;;;;;6.33;100.00;152985.91;5047912;28;20524;-90
2024/02/12 01:16:22;;;;;;;1.60;0.80;;;;;;;6.31;100.00;152982.03;5049645;28;20435;-90
2024/02/12 01:18:50;;;;;;;1.30;0.90;;;;;;;6.30;100.00;152978.16;5048975;28;20481;-90
2024/02/12 01:21:18;;;;;;;2.30;0.90;;;;;;;6.26;100.00;152967.81;5046702;28;20909;-90
2024/02/12 01:23:45;;;;;;;2.03;0.97;;;;;;;6.28;100.00;152972.97;5049540;28;20830;-90
2024/02/12 01:26:12;;;;;;;1.63;0.90;;;;;;;6.28;100.00;152972.97;5049445;28;20439;-90
2024/02/12 01:28:39;;;;;;;1.40;1.10;;;;;;;6.28;100.00;152974.28;5047108;28;21056;-90
2024/02/12 01:31:10;;;;;;;1.03;0.80;;;;;;;6.28;100.00;152972.97;5047118;28;20801;-90
2024/02/12 01:33:38;;;;;;;1.53;0.90;;;;;;;6.29;100.00;152976.88;5031690;28;20566;-90
2024/02/12 01:36:06;;;;;;;2.80;0.97;;;;;;;6.30;100.00;152979.41;5031034;28;20478;-89
2024/02/12 01:38:34;;;;;;;1.33;0.80;;;;;;;6.30;100.00;152979.41;5044058;28;20458;-90
2024/02/12 01:41:01;;;;;;;1.03;0.77;;;;;;;6.33;100.00;152985.91;5047726;28;20466;-89
2024/02/12 01:43:31;;;;;;;1.70;0.60;;;;;;;6.31;100.00;152980.72;5032772;28;20449;-90
2024/02/12 01:45:57;;;;;;;1.30;0.90;;;;;;;6.29;100.00;152975.56;5029857;28;20443;-90
2024/02/12 08:07:04;;;;;;;3.23;1.70;;;;;;;6.37;100.00;152997.53;5061641;28;20508;-90
2024/02/12 08:09:33;;;;;;;3.83;2.43;;;;;;;6.39;100.00;153001.38;5066824;28;20446;-90
2024/02/12 08:12:01;;;;;;;1.90;1.40;;;;;;;6.39;100.00;153002.66;5061169;28;20458;-89
2024/02/12 08:14:29;;;;;;;2.07;1.67;;;;;;;6.40;100.00;153005.28;5062061;28;20476;-89
2024/02/12 08:16:55;;;;;;;2.03;1.57;;;;;;;6.40;100.00;153005.28;5065953;28;20503;-89
2024/02/12 08:19:22;;;;;;;2.30;1.77;;;;;;;6.43;100.00;153013.03;5064710;28;20461;-89
2024/02/12 08:21:48;;;;;;;1.57;1.30;;;;;;;6.46;100.00;153019.47;5047685;28;20465;-88
2024/02/12 08:24:17;;;;;;;1.87;1.50;;;;;;;6.48;100.00;153025.91;5061339;28;20495;-89
2024/02/12 08:26:44;;;;;;;1.90;1.60;;;;;;;6.49;100.00;153028.47;5059524;28;20517;-89
2024/02/12 08:29:12;;;;;;;3.10;2.00;;;;;;;6.53;100.00;153037.50;5045476;28;20503;-89
2024/02/12 08:31:39;;;;;;;1.90;1.70;;;;;;;6.56;100.00;153045.25;5051534;28;20542;-89
2024/02/12 08:34:06;;;;;;;2.43;1.30;;;;;;;6.59;100.00;153053.00;5047908;28;20490;-89
2024/02/12 08:36:32;;;;;;;2.13;1.57;;;;;;;6.60;100.00;153056.88;5051131;28;20445;-89
2024/02/12 08:38:59;;;;;;;2.23;1.60;;;;;;;6.61;100.00;153059.47;5068365;28;20530;-89
2024/02/12 08:41:27;;;;;;;1.77;1.00;;;;;;;6.64;100.00;153067.22;5062775;28;20466;-89
2024/02/12 08:43:55;;;;;;;1.70;1.20;;;;;;;6.68;100.00;153076.22;5066311;28;20454;-88
2024/02/12 08:46:22;;;;;;;2.10;1.30;;;;;;;6.71;100.00;153083.97;5031337;28;20463;-88
2024/02/12 08:48:49;;;;;;;3.00;1.07;;;;;;;6.72;100.00;153086.56;5066929;28;20708;-89
2024/02/12 08:51:16;;;;;;;2.23;1.40;;;;;;;6.74;100.00;153091.72;5066765;28;20454;-85
2024/02/12 08:53:44;;;;;;;1.53;1.20;;;;;;;6.76;100.00;153096.88;5067483;28;20482;-89
2024/02/12 08:56:14;;;;;;;1.80;1.33;;;;;;;6.81;100.00;153109.78;5047232;28;20468;-88
2024/02/12 08:58:43;;;;;;;1.73;1.33;;;;;;;6.84;100.00;153116.22;5065989;28;20470;-88
2024/02/12 09:01:10;;;;;;;2.50;1.50;;;;;;;6.85;100.00;153118.81;5061626;28;20537;-88
2024/02/12 09:03:39;;;;;;;1.97;1.40;;;;;;;6.87;100.00;153125.28;5066351;28;20446;-89
2024/02/12 09:06:08;;;;;;;2.00;1.30;;;;;;;6.89;100.00;153130.44;5045053;28;20546;-89
2024/02/12 09:08:35;;;;;;;2.53;1.53;;;;;;;6.93;100.00;153140.78;5029949;28;20466;-89
2024/02/12 09:11:01;;;;;;;1.93;1.20;;;;;;;6.95;100.00;153145.94;5031109;28;20508;-89
2024/02/12 09:13:29;;;;;;;2.57;1.50;;;;;;;6.99;100.00;153156.25;5064174;28;20461;-88
2024/02/12 09:15:57;;;;;;;3.20;1.43;;;;;;;6.98;100.00;153152.38;5063189;28;20576;-89
2024/02/12 09:18:26;;;;;;;3.00;1.27;;;;;;;7.00;100.00;153158.84;5048365;28;21070;-89
2024/02/12 09:20:54;;;;;;;2.17;1.80;;;;;;;7.01;100.00;153161.44;5048692;28;20443;-89
2024/02/12 09:23:21;;;;;;;2.97;1.60;;;;;;;7.05;100.00;153170.44;5066860;28;20524;-89
2024/02/12 09:25:48;;;;;;;1.87;1.40;;;;;;;7.05;100.00;153171.75;5048964;28;20465;-89
2024/02/12 09:28:16;;;;;;;2.27;1.73;;;;;;;7.08;100.00;153179.50;5049433;28;20952;-89
2024/02/12 09:30:44;;;;;;;2.23;1.60;;;;;;;7.10;100.00;153184.66;5051446;28;20482;-89
2024/02/12 09:33:12;;;;;;;3.70;2.27;;;;;;;7.11;100.00;153187.25;5065047;28;20442;-88
2024/02/12 09:35:38;;;;;;;2.60;1.47;;;;;;;7.14;100.00;153195.00;5046533;28;20477;-89
2024/02/12 09:38:06;;;;;;;5.63;1.60;;;;;;;7.17;100.00;153201.47;5051946;28;20450;-89
2024/02/12 09:40:33;;;;;;;2.17;1.47;;;;;;;7.21;100.00;153213.06;5058476;28;20449;-88
2024/02/12 09:43:15;;;;;;;2.23;1.57;;;;;;;7.24;100.00;153219.53;5047431;28;21021;-89
2024/02/12 09:48:58;;;;;;;2.77;1.90;;;;;;;7.34;100.00;153246.63;5067914;28;20582;-89
2024/02/12 09:51:27;;;;;;;3.37;2.20;;;;;;;7.39;100.00;153258.25;5068081;28;20446;-88
2024/02/12 09:53:55;;;;;;;3.50;1.87;;;;;;;7.42;100.00;153266.00;5048543;28;20531;-89
2024/02/12 09:56:23;;;;;;;2.13;1.53;;;;;;;7.48;100.00;153280.22;5047357;28;20493;-89
2024/02/12 09:58:50;;;;;;;2.57;1.53;;;;;;;7.53;100.00;153293.13;5055730;28;20458;-89
2024/02/12 10:01:16;;;;;;;3.13;1.30;;;;;;;7.59;100.00;153309.94;5052716;28;21046;-89
2024/02/12 10:03:43;;;;;;;2.53;1.57;;;;;;;7.64;100.00;153322.84;5050020;28;20474;-88
2024/02/12 10:06:13;;;;;;;2.40;1.70;;;;;;;7.70;100.00;153337.06;5068316;28;20454;-89
2024/02/12 10:08:39;;;;;;;4.77;1.93;;;;;;;7.75;100.00;153351.28;5041595;28;20933;-89
2024/02/12 10:11:06;;;;;;;3.07;1.70;;;;;;;7.79;100.00;153360.28;5057295;28;20517;-89
2024/02/12 10:13:33;;;;;;;3.50;2.20;;;;;;;7.78;100.00;153358.97;5054569;28;20442;-88
2024/02/12 10:16:00;;;;;;;2.90;1.63;;;;;;;7.81;100.00;153365.50;5060082;28;20494;-88
2024/02/12 10:18:27;;;;;;;3.20;2.10;;;;;;;7.85;100.00;153377.09;5052706;28;20549;-88
2024/02/12 10:20:53;;;;;;;2.47;1.63;;;;;;;7.89;100.00;153386.13;5036290;28;20620;-88
2024/02/12 10:23:22;;;;;;;2.40;2.00;;;;;;;7.88;100.00;153383.56;5064129;28;20458;-88
2024/02/12 10:25:50;;;;;;;1.70;1.30;;;;;;;7.90;100.00;153390.03;5034881;28;20595;-88
2024/02/12 10:28:18;;;;;;;4.37;2.30;;;;;;;7.91;100.00;153391.31;5035011;28;20849;-88
2024/02/12 10:30:46;;;;;;;2.07;1.50;;;;;;;7.93;100.00;153396.47;5032280;28;20463;-88
2024/02/12 10:33:14;;;;;;;3.00;1.70;;;;;;;7.91;100.00;153392.63;5031998;28;20485;-88
2024/02/12 10:35:43;;;;;;;2.20;1.63;;;;;;;7.92;100.00;153395.19;5017140;28;20484;-88
2024/02/12 10:38:12;;;;;;;2.60;2.00;;;;;;;7.92;100.00;153393.88;5053482;28;20460;-88
2024/02/12 10:40:53;;;;;;;3.17;1.63;;;;;;;7.98;100.00;153410.69;5052315;28;20967;-88
2024/02/12 10:43:23;;;;;;;2.00;1.43;;;;;;;8.01;100.00;153415.84;5050185;28;20449;-88
2024/02/12 10:45:50;;;;;;;2.80;1.50;;;;;;;7.98;100.00;153409.41;5054062;28;20454;-89
2024/02/12 10:48:18;;;;;;;2.23;1.57;;;;;;;7.99;100.00;153412.00;5042964;28;20933;-89
2024/02/12 10:50:47;;;;;;;3.30;1.67;;;;;;;8.04;100.00;153423.63;5032901;28;20458;-89
2024/02/12 10:53:18;;;;;;;3.10;1.57;;;;;;;8.00;100.00;153414.53;5043656;28;20476;-90
2024/02/12 10:55:46;;;;;;;1.77;1.33;;;;;;;8.05;100.00;153427.47;5037520;28;20853;-90
2024/02/12 10:58:16;;;;;;;3.20;1.40;;;;;;;8.07;100.00;153432.66;5047069;28;20544;-90
2024/02/12 11:00:55;;;;;;;2.17;1.33;;;;;;;8.10;100.00;153439.13;5060405;28;20454;-90
2024/02/12 11:03:32;;;;;;;2.60;1.63;;;;;;;8.13;100.00;153446.88;5072113;28;20425;-88
2024/02/12 11:06:00;;;;;;;2.40;1.97;;;;;;;8.14;100.00;153450.75;5036413;28;20446;-88
2024/02/12 11:08:27;;;;;;;4.20;1.80;;;;;;;8.14;100.00;153450.75;5031750;28;20467;-88
2024/02/12 11:10:59;;;;;;;2.40;1.73;;;;;;;8.13;100.00;153448.13;5034138;28;20458;-88
2024/02/12 11:13:34;;;;;;;2.63;1.80;;;;;;;8.16;100.00;153454.59;5030018;28;20460;-88
2024/02/12 11:16:03;;;;;;;2.50;1.60;;;;;;;8.17;100.00;153458.50;5031660;28;20478;-88
2024/02/12 11:18:37;;;;;;;1.63;1.30;;;;;;;8.21;100.00;153468.81;5039634;28;20568;-89
2024/02/12 11:21:05;;;;;;;2.33;1.60;;;;;;;8.25;100.00;153479.19;5034268;28;20457;-89
2024/02/12 11:23:34;;;;;;;2.60;1.77;;;;;;;8.28;100.00;153487.00;5055587;28;20446;-89
2024/02/12 11:26:04;;;;;;;2.53;1.63;;;;;;;8.29;100.00;153488.25;5039885;28;20474;-89
2024/02/12 11:28:31;;;;;;;2.50;1.73;;;;;;;8.28;100.00;153485.69;5054022;28;20450;-89
2024/02/12 11:30:59;;;;;;;3.90;2.00;;;;;;;8.31;100.00;153494.72;5035575;28;20468;-89
2024/02/12 11:33:26;;;;;;;2.67;1.93;;;;;;;8.31;100.00;153493.47;5038635;28;20494;-89
2024/02/12 11:36:06;;;;;;;1.90;1.33;;;;;;;8.30;100.00;153492.16;5038288;28;20478;-89
2024/02/12 11:38:35;;;;;;;2.87;1.97;;;;;;;8.32;100.00;153497.31;5038719;28;20465;-89
2024/02/12 11:41:05;;;;;;;2.40;1.50;;;;;;;8.28;100.00;153487.00;5035870;28;20526;-89
2024/02/12 11:43:32;;;;;;;2.60;1.53;;;;;;;8.28;100.00;153485.69;5043420;28;20808;-89
2024/02/12 11:46:05;;;;;;;2.23;1.70;;;;;;;8.21;100.00;153468.81;5050850;28;20458;-91
2024/02/12 11:48:32;;;;;;;2.20;1.73;;;;;;;8.22;100.00;153471.44;5036933;28;20840;-90
2024/02/12 11:50:58;;;;;;;2.10;1.23;;;;;;;8.24;100.00;153476.59;5050486;28;20435;-90
2024/02/12 11:53:25;;;;;;;2.23;1.63;;;;;;;8.26;100.00;153481.75;5037839;28;20507;-89
2024/02/12 11:55:52;;;;;;;3.67;2.00;;;;;;;8.26;100.00;153480.50;5047838;28;20881;-89
2024/02/12 11:58:20;;;;;;;3.50;1.80;;;;;;;8.24;100.00;153476.59;5039159;28;20457;-89
2024/02/12 12:00:47;;;;;;;3.50;2.43;;;;;;;8.22;100.00;153470.13;5043033;28;20450;-90
2024/02/12 12:03:13;;;;;;;2.80;1.63;;;;;;;8.19;100.00;153463.66;5055852;28;20445;-90
2024/02/12 12:05:42;;;;;;;2.53;1.40;;;;;;;8.19;100.00;153462.38;5036157;28;20623;-89
2024/02/12 12:08:10;;;;;;;4.03;2.13;;;;;;;8.24;100.00;153476.59;5037477;28;20567;-90
2024/02/12 12:10:36;;;;;;;3.67;2.00;;;;;;;8.24;100.00;153475.28;5039990;28;20626;-89
2024/02/12 12:13:03;;;;;;;2.90;2.03;;;;;;;8.24;100.00;153476.59;5049192;28;21369;-90
2024/02/12 12:15:34;;;;;;;3.50;2.20;;;;;;;8.23;100.00;153474.03;5054966;28;20545;-90
2024/02/12 12:18:03;;;;;;;2.63;1.80;;;;;;;8.25;100.00;153477.88;5042963;28;20441;-89
2024/02/12 12:20:31;;;;;;;2.17;1.53;;;;;;;8.25;100.00;153479.19;5043303;28;20450;-89
2024/02/12 12:23:00;;;;;;;3.63;1.97;;;;;;;8.30;100.00;153490.84;5040429;28;20523;-89
2024/02/12 12:25:27;;;;;;;2.00;1.40;;;;;;;8.28;100.00;153487.00;5042360;28;20873;-90
2024/02/12 12:27:54;;;;;;;2.67;1.53;;;;;;;8.36;100.00;153507.69;5040672;28;20485;-90
2024/02/12 12:30:22;;;;;;;2.80;1.57;;;;;;;8.41;100.00;153520.59;5074089;28;20922;-88
2024/02/12 12:32:51;;;;;;;1.60;1.30;;;;;;;8.46;100.00;153533.53;5056868;28;20470;-88
2024/02/12 12:35:19;;;;;;;2.87;1.50;;;;;;;8.51;100.00;153546.44;5033845;28;20493;-90
2024/02/12 12:37:46;;;;;;;2.17;1.10;;;;;;;8.56;100.00;153559.38;5034737;28;20454;-89
2024/02/12 12:40:18;;;;;;;1.33;1.07;;;;;;;8.59;100.00;153565.81;5039557;28;20988;-88
2024/02/12 12:42:46;;;;;;;2.40;1.20;;;;;;;8.57;100.00;153561.97;5037285;28;20478;-88
2024/02/12 12:45:14;;;;;;;2.00;1.60;;;;;;;8.59;100.00;153565.81;5046666;28;20481;-89
2024/02/12 12:47:45;;;;;;;2.60;1.27;;;;;;;8.58;100.00;153563.22;5054725;28;20461;-88
2024/02/12 12:50:14;;;;;;;2.37;1.47;;;;;;;8.58;100.00;153564.53;5051879;28;20454;-89
2024/02/12 12:52:41;;;;;;;2.20;1.50;;;;;;;8.62;99.14;153572.28;5041332;28;20892;-88
2024/02/12 12:55:11;;;;;;;2.00;1.23;;;;;;;8.68;100.00;153589.13;5055251;28;20451;-89
2024/02/12 12:57:38;;;;;;;1.87;1.30;;;;;;;8.64;100.00;153577.44;5033464;28;20446;-89
2024/02/12 13:00:15;;;;;;;2.00;1.20;;;;;;;8.64;100.00;153577.44;5037728;28;20545;-90
2024/02/12 13:02:43;;;;;;;2.17;1.33;;;;;;;8.62;100.00;153573.59;5033438;28;20462;-88
2024/02/12 13:05:10;;;;;;;3.40;1.47;;;;;;;8.63;100.00;153574.88;5033745;28;20879;-89
2024/02/12 13:07:38;;;;;;;2.00;1.33;;;;;;;8.68;100.00;153587.81;5065024;28;20477;-88
2024/02/12 13:10:06;;;;;;;1.83;1.37;;;;;;;8.69;100.00;153590.38;5036253;28;20438;-87
2024/02/12 13:12:33;;;;;;;3.50;1.40;;;;;;;8.67;100.00;153586.50;5017782;28;20949;-88
2024/02/12 13:15:00;;;;;;;1.30;1.10;;;;;;;8.69;100.00;153590.38;5039378;28;20454;-88
2024/02/12 13:17:27;;;;;;;1.30;1.00;;;;;;;8.72;100.00;153599.44;5036528;28;20505;-88
2024/02/12 13:19:54;;;;;;;1.57;1.07;;;;;;;8.77;100.00;153612.34;5033425;28;20450;-88
2024/02/12 13:22:23;;;;;;;2.33;1.03;;;;;;;8.80;100.00;153618.81;5021322;28;20569;-89
2024/02/12 13:24:51;;;;;;;2.80;1.13;;;;;;;8.82;99.52;153623.97;5036359;28;20788;-89
2024/02/12 13:27:17;;;;;;;1.67;0.97;;;;;;;8.85;100.00;153631.75;5052940;28;20438;-89
2024/02/12 13:29:44;;;;;;;2.10;1.30;;;;;;;8.81;100.00;153621.41;5028638;28;20500;-89
2024/02/12 13:32:11;;;;;;;2.27;1.20;;;;;;;8.75;100.00;153607.19;5026857;28;20573;-89
2024/02/12 13:34:38;;;;;;;2.50;1.33;;;;;;;8.78;99.29;153613.66;5037498;28;20465;-89
2024/02/12 13:37:07;;;;;;;2.40;1.10;;;;;;;8.85;99.14;153633.03;5035157;28;20517;-89
2024/02/12 13:39:35;;;;;;;3.03;1.37;;;;;;;8.84;99.58;153630.44;5045375;28;20444;-89
2024/02/12 13:42:11;;;;;;;2.40;1.10;;;;;;;8.84;98.98;153630.44;5031899;28;20442;-90
2024/02/12 13:44:40;;;;;;;1.50;1.00;;;;;;;8.86;97.88;153634.34;5050585;28;20439;-90
2024/02/12 13:47:07;;;;;;;1.47;0.60;;;;;;;8.85;96.52;153631.75;5034784;28;20450;-89
2024/02/12 13:49:34;;;;;;;1.30;0.90;;;;;;;8.87;97.72;153636.94;5037073;28;20448;-90
2024/02/12 13:52:02;;;;;;;1.17;0.80;;;;;;;8.81;95.90;153622.72;5036214;28;20503;-89
2024/02/12 13:54:32;;;;;;;1.87;0.80;;;;;;;8.82;94.46;153623.97;5045089;28;20522;-88
2024/02/12 13:56:59;;;;;;;2.30;0.90;;;;;;;8.87;94.30;153638.22;5034040;28;20981;-89
2024/02/12 13:59:27;;;;;;;4.03;1.10;;;;;;;8.90;95.93;153644.66;5037436;28;20435;-89
2024/02/12 14:01:54;;;;;;;1.23;0.70;;;;;;;8.89;97.20;153642.13;5032106;28;20447;-88
2024/02/12 14:04:21;;;;;;;1.30;1.00;;;;;;;8.84;96.08;153629.19;5057389;28;20450;-88
2024/02/12 14:06:47;;;;;;;1.83;0.80;;;;;;;8.82;95.48;153623.97;5059089;28;20577;-89
2024/02/12 14:09:20;;;;;;;1.20;0.77;;;;;;;8.87;97.79;153638.22;5035304;28;20454;-89
2024/02/12 14:11:47;;;;;;;5.47;1.30;;;;;;;8.80;96.11;153618.81;5041738;28;20447;-88
2024/02/12 14:14:13;;;;;;;1.70;0.80;;;;;;;8.80;93.34;153618.81;5033750;28;20967;-88
2024/02/12 14:16:41;;;;;;;2.40;0.90;;;;;;;8.81;91.28;153621.41;5034855;28;20482;-90
2024/02/12 14:19:09;;;;;;;1.47;0.70;;;;;;;8.86;92.01;153634.34;5038507;28;20481;-89
2024/02/12 14:21:35;;;;;;;1.23;0.77;;;;;;;8.89;94.54;153642.13;5037227;28;20530;-89
2024/02/12 14:24:02;;;;;;;1.40;0.77;;;;;;;8.85;93.81;153631.75;5031698;28;20456;-88
2024/02/12 14:26:30;;;;;;;2.33;1.10;;;;;;;8.91;94.49;153647.28;5032308;28;20455;-88
2024/02/12 14:28:58;;;;;;;1.43;0.63;;;;;;;8.89;94.92;153642.13;5033306;28;20454;-88
2024/02/12 14:31:25;;;;;;;2.73;1.30;;;;;;;8.92;95.67;153649.88;5025199;28;20461;-88
2024/02/12 14:33:54;;;;;;;1.40;0.70;;;;;;;8.89;95.92;153643.41;5031958;28;20463;-88
2024/02/12 14:36:21;;;;;;;2.03;0.83;;;;;;;8.88;96.17;153639.50;5028245;28;20559;-88
2024/02/12 14:38:48;;;;;;;1.03;0.67;;;;;;;8.87;95.46;153636.94;5013681;28;20450;-88
2024/02/12 14:41:14;;;;;;;1.13;0.60;;;;;;;8.87;94.49;153636.94;5028956;28;20931;-88
2024/02/12 14:43:41;;;;;;;1.10;0.60;;;;;;;8.91;95.77;153647.28;5025162;28;20463;-87
2024/02/12 14:46:08;;;;;;;3.00;1.17;;;;;;;8.84;93.53;153630.44;5032373;28;21048;-90
2024/02/12 14:48:36;;;;;;;1.80;0.80;;;;;;;8.86;91.86;153634.34;5033651;28;20462;-89
2024/02/12 14:51:05;;;;;;;2.03;1.07;;;;;;;8.86;92.43;153634.34;5024127;28;20440;-88
2024/02/12 14:53:32;;;;;;;3.10;0.60;;;;;;;8.86;93.12;153635.66;5049012;28;20469;-90
2024/02/12 14:55:58;;;;;;;1.20;0.80;;;;;;;8.85;92.55;153631.75;5029162;28;20520;-91
2024/02/12 14:58:27;;;;;;;1.47;0.77;;;;;;;8.82;92.93;153623.97;5070720;28;20529;-89
2024/02/12 15:00:53;;;;;;;2.57;0.97;;;;;;;8.83;93.42;153627.88;5037471;28;20520;-89
2024/02/12 15:03:20;;;;;;;1.50;1.07;;;;;;;8.82;94.38;153623.97;5048888;28;20451;-90
2024/02/12 15:05:47;;;;;;;2.07;1.17;;;;;;;8.75;91.65;153605.91;5030546;28;20970;-90
2024/02/12 15:08:18;;;;;;;1.57;1.00;;;;;;;8.82;94.81;153623.97;5028148;28;20865;-89
2024/02/12 15:10:48;;;;;;;1.90;1.10;;;;;;;8.77;96.74;153612.34;5035222;28;20451;-89
2024/02/12 15:13:16;;;;;;;1.47;0.60;;;;;;;8.75;96.35;153605.91;5047051;28;20813;-89
2024/02/12 15:15:45;;;;;;;1.30;0.60;;;;;;;8.69;93.39;153591.66;5032119;28;20462;-89
2024/02/12 15:18:15;;;;;;;1.40;0.70;;;;;;;8.66;91.95;153583.91;5030647;28;20836;-90
2024/02/12 15:20:42;;;;;;;1.47;0.70;;;;;;;8.65;91.92;153580.03;5045991;28;21004;-89
2024/02/12 15:23:14;;;;;;;1.30;0.80;;;;;;;8.65;91.52;153580.03;5042250;28;20474;-88
2024/02/12 15:25:43;;;;;;;0.90;0.50;;;;;;;8.62;92.43;153573.59;5023106;28;20866;-89
2024/02/12 15:28:13;;;;;;;3.77;1.10;;;;;;;8.61;90.95;153570.97;5021449;28;20530;-89
2024/02/12 15:30:40;;;;;;;1.47;0.80;;;;;;;8.59;90.62;153565.81;5031600;28;20451;-89
2024/02/12 15:33:07;;;;;;;2.20;1.03;;;;;;;8.55;90.89;153556.75;5026734;28;20519;-90
2024/02/12 15:35:34;;;;;;;0.93;0.67;;;;;;;8.54;90.60;153554.19;5039047;28;20500;-89
2024/02/12 15:38:05;;;;;;;2.60;1.30;;;;;;;8.53;90.29;153551.59;5033429;28;20997;-89
2024/02/12 15:40:34;;;;;;;1.33;0.93;;;;;;;8.51;90.50;153545.13;5033587;28;20435;-88
2024/02/12 15:43:02;;;;;;;1.27;0.60;;;;;;;8.50;90.86;153543.84;5032946;28;20527;-89
2024/02/12 15:45:29;;;;;;;2.37;1.23;;;;;;;8.46;92.64;153533.53;5034481;28;20814;-90
2024/02/12 15:47:55;;;;;;;1.90;1.17;;;;;;;8.45;93.16;153530.91;5031940;28;20463;-89
2024/02/12 15:50:22;;;;;;;4.80;1.57;;;;;;;8.45;93.42;153530.91;5032792;28;20443;-89
2024/02/12 15:52:51;;;;;;;2.03;1.10;;;;;;;8.44;94.55;153528.34;5031327;28;20814;-89
2024/02/12 15:55:18;;;;;;;2.50;1.67;;;;;;;8.42;95.24;153523.16;5030948;28;20456;-89
2024/02/12 15:57:44;;;;;;;2.13;1.40;;;;;;;8.37;93.40;153510.22;5031786;28;20466;-88
2024/02/12 16:00:15;;;;;;;2.03;0.90;;;;;;;8.39;94.53;153515.38;5032764;28;20431;-89
2024/02/12 16:02:43;;;;;;;2.17;1.30;;;;;;;8.37;94.51;153508.94;5025742;28;20451;-89
2024/02/12 16:05:50;;;;;;;2.67;1.70;;;;;;;8.37;94.78;153510.22;5033339;28;20546;-89
2024/02/12 16:08:17;;;;;;;3.27;2.20;;;;;;;8.38;95.66;153512.84;5034550;28;20965;-89
2024/02/12 16:10:44;;;;;;;3.50;1.67;;;;;;;8.36;96.47;153507.69;5032993;28;20443;-88
2024/02/12 16:13:12;;;;;;;3.20;1.73;;;;;;;8.34;96.35;153501.22;5033521;28;20459;-88
2024/02/12 16:15:40;;;;;;;3.30;1.73;;;;;;;8.31;95.70;153494.72;5038378;28;20446;-88
2024/02/12 16:18:08;;;;;;;2.53;1.50;;;;;;;8.29;95.71;153489.56;5040214;28;20493;-88
2024/02/12 16:20:35;;;;;;;1.70;1.40;;;;;;;8.29;96.08;153489.56;5039862;28;20487;-89
2024/02/12 16:23:01;;;;;;;2.00;1.20;;;;;;;8.27;96.33;153483.09;5035011;28;20435;-88
2024/02/12 16:25:28;;;;;;;1.87;1.30;;;;;;;8.29;97.83;153489.56;5031255;28;20504;-89
2024/02/12 16:27:56;;;;;;;3.13;1.50;;;;;;;8.24;97.67;153475.28;5036718;28;20462;-89
2024/02/12 16:30:23;;;;;;;2.90;1.47;;;;;;;8.19;96.73;153463.66;5035264;28;20478;-88
2024/02/12 16:32:51;;;;;;;2.27;1.30;;;;;;;8.18;96.16;153459.81;5038038;28;20546;-89
2024/02/12 16:35:18;;;;;;;2.00;1.20;;;;;;;8.19;97.47;153463.66;5037727;28;20439;-89
2024/02/12 16:37:45;;;;;;;2.73;1.40;;;;;;;8.14;96.68;153450.75;5034358;28;20471;-88
2024/02/12 16:40:12;;;;;;;1.60;1.00;;;;;;;8.09;96.87;153436.53;5026412;28;20436;-89
2024/02/12 16:42:41;;;;;;;3.00;1.40;;;;;;;8.01;95.57;153415.84;5033318;28;20482;-88
2024/02/12 16:45:09;;;;;;;1.80;1.00;;;;;;;7.98;95.04;153409.41;5031874;28;20478;-89
2024/02/12 16:47:38;;;;;;;1.67;1.07;;;;;;;7.92;95.06;153393.88;5025435;28;20443;-88
2024/02/12 16:50:07;;;;;;;2.90;1.23;;;;;;;7.93;96.15;153396.47;5033627;28;20446;-89
2024/02/12 16:52:34;;;;;;;2.30;1.03;;;;;;;7.88;96.74;153383.56;5068772;28;20446;-89
2024/02/12 16:55:03;;;;;;;3.60;1.27;;;;;;;7.87;97.89;153380.97;5028735;28;20446;-89
2024/02/12 16:57:29;;;;;;;2.70;1.10;;;;;;;7.81;98.08;153365.50;5017189;28;20462;-89
2024/02/12 16:59:57;;;;;;;2.77;0.97;;;;;;;7.77;97.91;153356.44;5025277;28;20840;-89
2024/02/12 17:02:25;;;;;;;1.40;0.93;;;;;;;7.74;98.70;153347.38;5031535;28;20505;-89
2024/02/12 17:04:54;;;;;;;1.90;0.87;;;;;;;7.68;98.36;153331.84;5033514;28;20451;-89
2024/02/12 17:07:26;;;;;;;5.37;1.10;;;;;;;7.69;99.15;153334.47;5033720;28;20475;-89
2024/02/12 17:09:52;;;;;;;2.60;1.47;;;;;;;7.63;99.08;153318.94;5033624;28;20478;-88
2024/02/12 17:12:20;;;;;;;2.83;1.30;;;;;;;7.56;98.13;153300.88;5031840;28;20443;-89
2024/02/12 17:14:46;;;;;;;2.50;1.70;;;;;;;7.55;97.86;153298.28;5030041;28;20447;-89
2024/02/12 17:17:13;;;;;;;3.17;2.03;;;;;;;7.51;97.66;153289.28;5048908;28;20480;-88
2024/02/12 17:19:40;;;;;;;2.60;1.97;;;;;;;7.54;98.03;153295.72;5046798;28;20546;-89
2024/02/12 17:22:09;;;;;;;3.00;1.93;;;;;;;7.53;99.67;153294.44;5031514;28;20453;-89
2024/02/12 17:24:37;;;;;;;2.80;1.47;;;;;;;7.55;99.63;153299.59;5039224;28;20452;-89
2024/02/12 17:27:04;;;;;;;3.83;1.83;;;;;;;7.53;99.71;153293.13;5034134;28;20789;-89
2024/02/12 17:29:32;;;;;;;3.60;1.60;;;;;;;7.53;100.00;153293.13;5031913;28;21029;-89
2024/02/12 17:31:58;;;;;;;2.17;1.50;;;;;;;7.47;100.00;153277.63;5031325;28;20906;-89
2024/02/12 17:34:26;;;;;;;2.10;1.33;;;;;;;7.45;99.38;153273.75;5029564;28;20942;-88
2024/02/12 17:36:52;;;;;;;5.00;2.27;;;;;;;7.47;99.86;153277.63;5022167;28;20502;-89
2024/02/12 17:39:19;;;;;;;6.10;1.73;;;;;;;7.49;100.00;153284.13;5032282;28;20454;-89
2024/02/12 17:41:47;;;;;;;2.37;1.43;;;;;;;7.47;100.00;153277.63;5022930;28;20455;-89
2024/02/12 17:44:14;;;;;;;2.20;1.30;;;;;;;7.43;100.00;153267.31;5032137;28;20965;-89
2024/02/12 17:46:40;;;;;;;3.03;1.73;;;;;;;7.37;99.21;153253.09;5033232;28;20471;-88
2024/02/12 17:49:07;;;;;;;3.63;2.10;;;;;;;7.38;99.24;153254.41;5028934;28;20494;-89
2024/02/12 17:51:34;;;;;;;3.00;2.10;;;;;;;7.34;98.68;153246.63;5029354;28;20466;-89
2024/02/12 17:54:01;;;;;;;3.53;2.80;;;;;;;7.34;98.38;153246.63;5050460;28;20568;-89